Cloud cover More information Parkstad Weather Satellite


Precipitateradar More information Parkstad Rain Snow Radar


Thunderstorms More information Parkstad Lighntning


24/7 Weathercamera More information Parkstad Weathercam


Natural Fire Risk
CBI







The weather does not pose an immediate danger in Parkstad.    There are no Weather-warnings

Nearby METAR Reports

   
EHAM - Amsterdam
Updated: 04-03-2021 12:25
Mostly Cloudy  
Mostly Cloudy  
   Wind: NNE 9.3 km/h
Wind: NNE 9.3 km/h
Temperature: 5°C
Wind Chill: 3°C
Dew Point: 2°C
Humidity: 81%
Barometer: 1022 hPa
Satellite images: Mostly Cloudy
Visibility: More than 10 km
Cloud details: Few Clouds 305 m,
Mostly Cloudy 488 m
EHAM 041125Z 02005KT 330V050 9999 FEW010 BKN016 05/02 Q1022 BECMG BKN025
EBAW - Antwerpen
Updated: 04-03-2021 12:20
Light Rain, Drizzle, Mist, Mostly Cloudy  
Light Rain, Drizzle, Mist, Mostly Cloudy  
   Wind: North 5.6 km/h
Wind: North 5.6 km/h
Temperature: 5°C
Wind Chill: 4°C
Dew Point: 4°C
Humidity: 93%
Barometer: 1021 hPa
Satellite images: Mostly Cloudy
Visibility: 3 km
Cloud details: Partly Cloudy 91 m,
Partly Cloudy 122 m,
Mostly Cloudy 183 m
EBAW 041120Z 01003KT 320V060 3200 -RADZ BR SCT003 SCT004 BKN006 05/04 Q1021 NOSIG
EGLL - London
Updated: 04-03-2021 12:20
Overcast  
Overcast  
   Wind: NNE 9.3 km/h
Wind: NNE 9.3 km/h
Temperature: 5°C
Wind Chill: 3°C
Dew Point: 3°C
Humidity: 87%
Barometer: 1025 hPa
Satellite images: Overcast
Visibility: More than 10 km
Cloud details: Mostly Cloudy 366 m,
Overcast 488 m
EGLL 041120Z AUTO 03005KT 340V060 9999 BKN012 OVC016 05/03 Q1025 BECMG SCT012 BKN016
ELLX - Luxemburg
Updated: 04-03-2021 12:20
Mostly Cloudy  
Mostly Cloudy  
   Wind: SSW 9.3 km/h
Wind: SSW 9.3 km/h
Temperature: 9°C
Wind Chill: 8°C
Dew Point: 5°C
Humidity: 76%
Barometer: 1019 hPa
Satellite images: Mostly Cloudy
Visibility: More than 10 km
Cloud details: Mostly Cloudy 610 m
ELLX 041120Z 20005KT 9999 BKN020 09/05 Q1019 NOSIG
EDDT - Berlijn
Updated: 09-11-2020 07:50
Obsolete
Mist, Overcast  
Mist, Overcast  
   Wind: East 11.1 km/h
Wind: East 11.1 km/h
Temperature: 6°C
Wind Chill: 4°C
Dew Point: 5°C
Humidity: 93%
Barometer: 1027 hPa
Satellite images: Overcast
Visibility: 3 km
Cloud details: Overcast 91 m
EDDT 090650Z 09006KT 050V120 3000 BR OVC003 06/05 Q1027
EDDM - München
Updated: 04-03-2021 12:20
Clear  
Clear  
   Wind: WSW 24.1 km/h
Wind: WSW 24.1 km/h
Temperature: 12°C
Dew Point: 0°C
Humidity: 44%
Barometer: 1019 hPa
Visibility: More than 10 km
Cloud details: Clear
EDDM 041120Z 25013KT CAVOK 12/M00 Q1019 NOSIG
LFPO - Parijs
Updated: 04-03-2021 12:30
Mostly Cloudy  
Mostly Cloudy  
   Wind: West 18.5 km/h
Wind: West 18.5 km/h
Temperature: 12°C
Dew Point: 7°C
Humidity: 72%
Barometer: 1022 hPa
Satellite images: Mostly Cloudy
Visibility: More than 10 km
Cloud details: Few Clouds 549 m,
Mostly Cloudy 2134 m
LFPO 041130Z 28010KT 9999 FEW018 BKN070 12/07 Q1022 NOSIG
EDDL - Düsseldorf
Updated: 04-03-2021 12:20
Mostly Cloudy  
Mostly Cloudy  
   Wind: NNW 7.4 km/h
Wind: NNW 7.4 km/h
Temperature: 5°C
Wind Chill: 3°C
Dew Point: 4°C
Humidity: 93%
Barometer: 1020 hPa
Satellite images: Mostly Cloudy
Visibility: 7 km
Cloud details: Partly Cloudy 122 m,
Mostly Cloudy 213 m
EDDL 041120Z 33004KT 7000 SCT004 BKN007 05/04 Q1020 TEMPO 3000 BKN004
EDDK - Köln/Bonn Duitsland
Updated: 04-03-2021 12:20
Mostly Cloudy  
Mostly Cloudy  
   Wind: North 9.3 km/h
Wind: North 9.3 km/h
Temperature: 9°C
Wind Chill: 8°C
Dew Point: 7°C
Humidity: 87%
Barometer: 1019 hPa
Satellite images: Mostly Cloudy
Visibility: 7 km
Cloud details: Partly Cloudy 213 m,
Mostly Cloudy 914 m
EDDK 041120Z 35005KT 330V030 7000 SCT007 BKN030 09/07 Q1019 BECMG BKN007
TNCA - Oranjestad Aruba
Updated: 04-03-2021 12:00
Few Clouds  
Few Clouds  
   Wind: ESE 16.7 km/h
Wind: ESE 16.7 km/h
Temperature: 24°C
Dew Point: 20°C
Humidity: 78%
Barometer: 1014 hPa
Satellite images: Few Clouds
Visibility: More than 10 km
Cloud details: Few Clouds 549 m
TNCA 041100Z 11009KT 9999 FEW018 24/20 Q1014 NOSIG
TNCC - Willemstad Curacao
Updated: 04-03-2021 12:00
Few Clouds  
Few Clouds  
   Wind: ESE 16.7 km/h
Wind: ESE 16.7 km/h
Temperature: 24°C
Dew Point: 19°C
Humidity: 74%
Barometer: 1014 hPa
Satellite images: Few Clouds
Visibility: More than 10 km
Cloud details: Few Clouds 610 m
TNCC 041100Z 12009KT 9999 FEW020 24/19 Q1014 NOSIG
LEAL - La Nucia Spanje
Updated: 04-03-2021 12:30
Few Clouds  
Few Clouds  
   Wind: East 13 km/h
Wind: East 13 km/h
Temperature: 16°C
Dew Point: 10°C
Humidity: 68%
Barometer: 1022 hPa
Satellite images: Few Clouds
Visibility: More than 10 km
Cloud details: Few Clouds 549 m
LEAL 041130Z 09007KT 060V150 9999 FEW018 16/10 Q1022 NOSIG

Script developed by  Saratoga-weather.org Adapted for the template by  Weerstation Leuven

You find our weather info also at:

Het Weer Aktueel

WOW Nederland KNMI

Vereniging voor Weerkunde en Klimatologie

UK Met Office Weather Observation Website (WOW)

WeatherCloud

Weather Underground

Awekas

MeteoMap.Cloud

HAMweather, WeatherForYou, PWS Weather

Citizen Weather Observer Program (CWOP)

Equipment we use:

Hardware supplier
Weerhuisje

Weather-station
Vantage Pro2+ UV

WeatherServer's
alix3d2 & wl330n

WeatherProgram's
Smartbedded

Satellite NOAA's
WRX137 & KX137

Satellite Eumetsat
Ayecka SR1 & Triax

Lightning detector
Boltek StormTracker

Provider
F-Service

Weerhuisje

Vantage Pro2+ UV

alix3d2 & wl330n

Smartbedded

WRX137 & KX137

Ayecka SR1 & Triax

Boltek StormTracker

F-Service